sensor_id;sensor_type;location;lat;lon;timestamp;temperature;humidity
23305;DHT22;11821;51.456;8.844;2022-09-09T00:01:28;15.50;99.90
23305;DHT22;11821;51.456;8.844;2022-09-09T00:06:31;15.60;99.90
23305;DHT22;11821;51.456;8.844;2022-09-09T00:09:01;15.50;99.90
23305;DHT22;11821;51.456;8.844;2022-09-09T00:11:51;15.50;99.90
23305;DHT22;11821;51.456;8.844;2022-09-09T00:14:20;15.40;99.90
23305;DHT22;11821;51.456;8.844;2022-09-09T00:16:56;15.50;99.90
23305;DHT22;11821;51.456;8.844;2022-09-09T00:19:31;15.50;99.90
23305;DHT22;11821;51.456;8.844;2022-09-09T00:22:18;15.40;99.90
23305;DHT22;11821;51.456;8.844;2022-09-09T00:24:51;15.40;99.90
23305;DHT22;11821;51.456;8.844;2022-09-09T00:27:29;15.40;99.90
23305;DHT22;11821;51.456;8.844;2022-09-09T00:30:19;15.40;99.90
23305;DHT22;11821;51.456;8.844;2022-09-09T00:33:07;15.40;99.90
23305;DHT22;11821;51.456;8.844;2022-09-09T00:35:40;15.40;99.90
23305;DHT22;11821;51.456;8.844;2022-09-09T00:38:16;15.30;99.90
23305;DHT22;11821;51.456;8.844;2022-09-09T00:41:00;15.30;99.90
23305;DHT22;11821;51.456;8.844;2022-09-09T00:43:31;15.30;99.90
23305;DHT22;11821;51.456;8.844;2022-09-09T00:46:16;15.20;99.90
23305;DHT22;11821;51.456;8.844;2022-09-09T00:49:20;15.20;99.90
23305;DHT22;11821;51.456;8.844;2022-09-09T00:59:47;15.20;99.90
23305;DHT22;11821;51.456;8.844;2022-09-09T01:02:29;15.20;99.90
23305;DHT22;11821;51.456;8.844;2022-09-09T01:05:16;15.30;99.90
23305;DHT22;11821;51.456;8.844;2022-09-09T01:07:49;15.30;99.90
23305;DHT22;11821;51.456;8.844;2022-09-09T01:10:28;15.20;99.90
23305;DHT22;11821;51.456;8.844;2022-09-09T01:12:58;15.20;99.90
23305;DHT22;11821;51.456;8.844;2022-09-09T01:15:30;15.20;99.90
23305;DHT22;11821;51.456;8.844;2022-09-09T01:18:00;15.20;99.90
23305;DHT22;11821;51.456;8.844;2022-09-09T01:20:39;15.20;99.90
23305;DHT22;11821;51.456;8.844;2022-09-09T01:26:23;15.20;99.90
23305;DHT22;11821;51.456;8.844;2022-09-09T01:28:52;15.10;99.90
23305;DHT22;11821;51.456;8.844;2022-09-09T01:31:26;15.20;99.90
23305;DHT22;11821;51.456;8.844;2022-09-09T01:33:54;15.20;99.90
23305;DHT22;11821;51.456;8.844;2022-09-09T01:36:29;15.10;99.90
23305;DHT22;11821;51.456;8.844;2022-09-09T01:38:59;15.10;99.90
23305;DHT22;11821;51.456;8.844;2022-09-09T01:41:26;15.00;99.90
23305;DHT22;11821;51.456;8.844;2022-09-09T01:44:13;15.10;99.90
23305;DHT22;11821;51.456;8.844;2022-09-09T01:46:43;15.10;99.90
23305;DHT22;11821;51.456;8.844;2022-09-09T01:49:16;15.10;99.90
23305;DHT22;11821;51.456;8.844;2022-09-09T01:51:43;15.10;99.90
23305;DHT22;11821;51.456;8.844;2022-09-09T01:54:14;15.10;99.90
23305;DHT22;11821;51.456;8.844;2022-09-09T01:59:48;15.10;99.90
23305;DHT22;11821;51.456;8.844;2022-09-09T02:02:26;15.00;99.90
23305;DHT22;11821;51.456;8.844;2022-09-09T02:05:37;15.00;99.90
23305;DHT22;11821;51.456;8.844;2022-09-09T02:08:09;15.00;99.90
23305;DHT22;11821;51.456;8.844;2022-09-09T02:10:54;15.00;99.90
23305;DHT22;11821;51.456;8.844;2022-09-09T02:13:37;15.00;99.90
23305;DHT22;11821;51.456;8.844;2022-09-09T02:16:21;15.10;99.90
23305;DHT22;11821;51.456;8.844;2022-09-09T02:18:55;15.00;99.90
23305;DHT22;11821;51.456;8.844;2022-09-09T02:21:33;15.00;99.90
23305;DHT22;11821;51.456;8.844;2022-09-09T02:24:05;15.00;99.90
23305;DHT22;11821;51.456;8.844;2022-09-09T02:26:40;15.00;99.90
23305;DHT22;11821;51.456;8.844;2022-09-09T02:29:14;15.00;99.90
23305;DHT22;11821;51.456;8.844;2022-09-09T02:31:42;15.00;99.90
23305;DHT22;11821;51.456;8.844;2022-09-09T02:34:16;15.00;99.90
23305;DHT22;11821;51.456;8.844;2022-09-09T02:36:45;15.00;99.90
23305;DHT22;11821;51.456;8.844;2022-09-09T02:39:13;15.00;99.90
23305;DHT22;11821;51.456;8.844;2022-09-09T02:41:41;15.00;99.90
23305;DHT22;11821;51.456;8.844;2022-09-09T02:44:12;15.10;99.90
23305;DHT22;11821;51.456;8.844;2022-09-09T02:50:18;15.10;99.90
23305;DHT22;11821;51.456;8.844;2022-09-09T02:58:16;15.10;99.90
23305;DHT22;11821;51.456;8.844;2022-09-09T03:00:49;15.20;99.90
23305;DHT22;11821;51.456;8.844;2022-09-09T03:03:16;15.10;99.90
23305;DHT22;11821;51.456;8.844;2022-09-09T03:05:44;15.10;99.90
23305;DHT22;11821;51.456;8.844;2022-09-09T03:08:12;15.20;99.90
23305;DHT22;11821;51.456;8.844;2022-09-09T03:10:39;15.20;99.90
23305;DHT22;11821;51.456;8.844;2022-09-09T03:13:06;15.20;99.90
23305;DHT22;11821;51.456;8.844;2022-09-09T03:15:37;15.10;99.90
23305;DHT22;11821;51.456;8.844;2022-09-09T03:18:05;15.30;99.90
23305;DHT22;11821;51.456;8.844;2022-09-09T03:20:33;15.30;99.90
23305;DHT22;11821;51.456;8.844;2022-09-09T03:22:59;15.20;99.90
23305;DHT22;11821;51.456;8.844;2022-09-09T03:25:26;15.30;99.90
23305;DHT22;11821;51.456;8.844;2022-09-09T03:27:54;15.30;99.90
23305;DHT22;11821;51.456;8.844;2022-09-09T03:30:23;15.20;99.90
23305;DHT22;11821;51.456;8.844;2022-09-09T03:32:50;15.20;99.90
23305;DHT22;11821;51.456;8.844;2022-09-09T03:35:17;15.20;99.90
23305;DHT22;11821;51.456;8.844;2022-09-09T03:37:43;15.20;99.90
23305;DHT22;11821;51.456;8.844;2022-09-09T03:40:12;15.20;99.90
23305;DHT22;11821;51.456;8.844;2022-09-09T03:42:39;15.20;99.90
23305;DHT22;11821;51.456;8.844;2022-09-09T03:45:07;15.10;99.90
23305;DHT22;11821;51.456;8.844;2022-09-09T03:47:35;15.10;99.90
23305;DHT22;11821;51.456;8.844;2022-09-09T03:50:06;15.20;99.90
23305;DHT22;11821;51.456;8.844;2022-09-09T03:52:39;15.20;99.90
23305;DHT22;11821;51.456;8.844;2022-09-09T03:55:12;15.10;99.90
23305;DHT22;11821;51.456;8.844;2022-09-09T03:57:40;15.10;99.90
23305;DHT22;11821;51.456;8.844;2022-09-09T04:00:09;15.10;99.90
23305;DHT22;11821;51.456;8.844;2022-09-09T04:02:49;15.10;99.90
23305;DHT22;11821;51.456;8.844;2022-09-09T04:05:16;15.10;99.90
23305;DHT22;11821;51.456;8.844;2022-09-09T04:07:45;15.10;99.90
23305;DHT22;11821;51.456;8.844;2022-09-09T04:10:12;15.10;99.90
23305;DHT22;11821;51.456;8.844;2022-09-09T04:12:39;15.10;99.90
23305;DHT22;11821;51.456;8.844;2022-09-09T04:15:06;15.00;99.90
23305;DHT22;11821;51.456;8.844;2022-09-09T04:17:34;15.00;99.90
23305;DHT22;11821;51.456;8.844;2022-09-09T04:20:03;15.00;99.90
23305;DHT22;11821;51.456;8.844;2022-09-09T04:22:29;15.00;99.90
23305;DHT22;11821;51.456;8.844;2022-09-09T04:24:55;14.90;99.90
23305;DHT22;11821;51.456;8.844;2022-09-09T04:27:22;14.90;99.90
23305;DHT22;11821;51.456;8.844;2022-09-09T04:29:49;15.00;99.90
23305;DHT22;11821;51.456;8.844;2022-09-09T04:32:16;15.00;99.90
23305;DHT22;11821;51.456;8.844;2022-09-09T04:34:42;14.90;99.90
23305;DHT22;11821;51.456;8.844;2022-09-09T04:37:09;15.10;99.90
23305;DHT22;11821;51.456;8.844;2022-09-09T04:39:36;15.10;99.90
23305;DHT22;11821;51.456;8.844;2022-09-09T04:42:03;15.10;99.90
23305;DHT22;11821;51.456;8.844;2022-09-09T04:44:33;15.10;99.90
23305;DHT22;11821;51.456;8.844;2022-09-09T04:46:59;15.20;99.90
23305;DHT22;11821;51.456;8.844;2022-09-09T04:49:25;15.20;99.90
23305;DHT22;11821;51.456;8.844;2022-09-09T04:51:53;15.20;99.90
23305;DHT22;11821;51.456;8.844;2022-09-09T04:54:19;15.30;99.90
23305;DHT22;11821;51.456;8.844;2022-09-09T04:56:46;15.30;99.90
23305;DHT22;11821;51.456;8.844;2022-09-09T04:59:13;15.20;99.90
23305;DHT22;11821;51.456;8.844;2022-09-09T05:01:45;15.20;99.90
23305;DHT22;11821;51.456;8.844;2022-09-09T05:04:12;15.30;99.90
23305;DHT22;11821;51.456;8.844;2022-09-09T05:06:38;15.20;99.90
23305;DHT22;11821;51.456;8.844;2022-09-09T05:09:05;15.20;99.90
23305;DHT22;11821;51.456;8.844;2022-09-09T05:11:32;15.20;99.90
23305;DHT22;11821;51.456;8.844;2022-09-09T05:14:10;15.20;99.90
23305;DHT22;11821;51.456;8.844;2022-09-09T05:16:38;15.20;99.90
23305;DHT22;11821;51.456;8.844;2022-09-09T05:19:04;15.10;99.90
23305;DHT22;11821;51.456;8.844;2022-09-09T05:21:41;15.10;99.90
23305;DHT22;11821;51.456;8.844;2022-09-09T05:24:07;15.20;99.90
23305;DHT22;11821;51.456;8.844;2022-09-09T05:26:34;15.20;99.90
23305;DHT22;11821;51.456;8.844;2022-09-09T05:29:02;15.20;99.90
23305;DHT22;11821;51.456;8.844;2022-09-09T05:31:30;15.20;99.90
23305;DHT22;11821;51.456;8.844;2022-09-09T05:33:59;15.20;99.90
23305;DHT22;11821;51.456;8.844;2022-09-09T05:36:25;15.20;99.90
23305;DHT22;11821;51.456;8.844;2022-09-09T05:38:56;15.30;99.90
23305;DHT22;11821;51.456;8.844;2022-09-09T05:41:23;15.30;99.90
23305;DHT22;11821;51.456;8.844;2022-09-09T05:43:52;15.30;99.90
23305;DHT22;11821;51.456;8.844;2022-09-09T05:46:21;15.40;99.90
23305;DHT22;11821;51.456;8.844;2022-09-09T05:48:51;15.40;99.90
23305;DHT22;11821;51.456;8.844;2022-09-09T05:51:22;15.40;99.90
23305;DHT22;11821;51.456;8.844;2022-09-09T05:53:51;15.50;99.90
23305;DHT22;11821;51.456;8.844;2022-09-09T05:56:21;15.50;99.90
23305;DHT22;11821;51.456;8.844;2022-09-09T05:58:58;15.60;99.90
23305;DHT22;11821;51.456;8.844;2022-09-09T06:01:32;15.70;99.90
23305;DHT22;11821;51.456;8.844;2022-09-09T06:03:59;15.70;99.90
23305;DHT22;11821;51.456;8.844;2022-09-09T06:06:30;15.80;99.90
23305;DHT22;11821;51.456;8.844;2022-09-09T06:08:58;15.90;99.90
23305;DHT22;11821;51.456;8.844;2022-09-09T06:11:29;16.00;99.90
23305;DHT22;11821;51.456;8.844;2022-09-09T06:13:59;16.10;99.90
23305;DHT22;11821;51.456;8.844;2022-09-09T06:16:28;16.20;99.90
23305;DHT22;11821;51.456;8.844;2022-09-09T06:18:56;16.40;99.90
23305;DHT22;11821;51.456;8.844;2022-09-09T06:21:29;16.40;99.90
23305;DHT22;11821;51.456;8.844;2022-09-09T06:23:57;16.60;99.90
23305;DHT22;11821;51.456;8.844;2022-09-09T06:26:30;16.60;99.90
23305;DHT22;11821;51.456;8.844;2022-09-09T06:28:59;16.80;99.90
23305;DHT22;11821;51.456;8.844;2022-09-09T06:31:27;16.90;99.90
23305;DHT22;11821;51.456;8.844;2022-09-09T06:33:58;16.90;99.90
23305;DHT22;11821;51.456;8.844;2022-09-09T06:36:32;17.00;99.90
23305;DHT22;11821;51.456;8.844;2022-09-09T06:39:00;17.10;99.90
23305;DHT22;11821;51.456;8.844;2022-09-09T06:41:28;17.20;99.90
23305;DHT22;11821;51.456;8.844;2022-09-09T06:43:56;17.30;99.90
23305;DHT22;11821;51.456;8.844;2022-09-09T06:46:31;17.30;99.90
23305;DHT22;11821;51.456;8.844;2022-09-09T06:49:00;17.40;99.90
23305;DHT22;11821;51.456;8.844;2022-09-09T06:51:31;17.40;99.90
23305;DHT22;11821;51.456;8.844;2022-09-09T06:53:59;17.60;99.90
23305;DHT22;11821;51.456;8.844;2022-09-09T06:58:56;17.90;99.90
23305;DHT22;11821;51.456;8.844;2022-09-09T07:01:28;18.00;99.90
23305;DHT22;11821;51.456;8.844;2022-09-09T07:03:59;18.20;99.90
23305;DHT22;11821;51.456;8.844;2022-09-09T07:06:28;18.40;99.90
23305;DHT22;11821;51.456;8.844;2022-09-09T07:09:00;18.40;99.90
23305;DHT22;11821;51.456;8.844;2022-09-09T07:11:30;18.50;99.90
23305;DHT22;11821;51.456;8.844;2022-09-09T07:13:59;18.60;99.90
23305;DHT22;11821;51.456;8.844;2022-09-09T07:16:26;18.70;99.90
23305;DHT22;11821;51.456;8.844;2022-09-09T07:18:54;18.70;99.90
23305;DHT22;11821;51.456;8.844;2022-09-09T07:21:28;18.80;99.90
23305;DHT22;11821;51.456;8.844;2022-09-09T07:24:02;19.10;99.90
23305;DHT22;11821;51.456;8.844;2022-09-09T07:26:30;19.50;99.90
23305;DHT22;11821;51.456;8.844;2022-09-09T07:28:59;19.40;99.90
23305;DHT22;11821;51.456;8.844;2022-09-09T07:31:28;19.40;99.90
23305;DHT22;11821;51.456;8.844;2022-09-09T07:33:56;19.60;99.90
23305;DHT22;11821;51.456;8.844;2022-09-09T07:36:25;19.70;99.90
23305;DHT22;11821;51.456;8.844;2022-09-09T07:38:55;19.80;99.90
23305;DHT22;11821;51.456;8.844;2022-09-09T07:41:30;19.90;99.90
23305;DHT22;11821;51.456;8.844;2022-09-09T07:43:58;20.00;99.90
23305;DHT22;11821;51.456;8.844;2022-09-09T07:46:26;20.10;99.90
23305;DHT22;11821;51.456;8.844;2022-09-09T07:48:54;20.00;99.90
23305;DHT22;11821;51.456;8.844;2022-09-09T07:51:28;20.20;99.90
23305;DHT22;11821;51.456;8.844;2022-09-09T07:53:57;20.40;99.90
23305;DHT22;11821;51.456;8.844;2022-09-09T07:56:25;20.40;99.90
23305;DHT22;11821;51.456;8.844;2022-09-09T07:58:53;20.60;99.90
23305;DHT22;11821;51.456;8.844;2022-09-09T08:01:29;20.90;99.90
23305;DHT22;11821;51.456;8.844;2022-09-09T08:04:02;21.30;99.90
23305;DHT22;11821;51.456;8.844;2022-09-09T08:06:32;21.70;99.90
23305;DHT22;11821;51.456;8.844;2022-09-09T08:09:03;22.00;99.90
23305;DHT22;11821;51.456;8.844;2022-09-09T08:11:31;22.30;99.90
23305;DHT22;11821;51.456;8.844;2022-09-09T08:13:59;22.60;99.90
23305;DHT22;11821;51.456;8.844;2022-09-09T08:16:28;22.70;99.90
23305;DHT22;11821;51.456;8.844;2022-09-09T08:18:57;22.90;99.90
23305;DHT22;11821;51.456;8.844;2022-09-09T08:21:26;23.10;99.90
23305;DHT22;11821;51.456;8.844;2022-09-09T08:23:59;23.40;99.90
23305;DHT22;11821;51.456;8.844;2022-09-09T08:26:37;23.60;99.90
23305;DHT22;11821;51.456;8.844;2022-09-09T08:29:07;23.60;99.90
23305;DHT22;11821;51.456;8.844;2022-09-09T08:31:36;23.70;99.90
23305;DHT22;11821;51.456;8.844;2022-09-09T08:34:06;23.60;99.90
23305;DHT22;11821;51.456;8.844;2022-09-09T08:36:35;23.70;99.90
23305;DHT22;11821;51.456;8.844;2022-09-09T08:39:04;23.50;99.90
23305;DHT22;11821;51.456;8.844;2022-09-09T08:47:43;23.90;99.90
23305;DHT22;11821;51.456;8.844;2022-09-09T08:50:38;23.50;99.90
23305;DHT22;11821;51.456;8.844;2022-09-09T08:53:28;23.40;99.90
23305;DHT22;11821;51.456;8.844;2022-09-09T08:56:00;23.20;99.90
23305;DHT22;11821;51.456;8.844;2022-09-09T08:58:44;23.20;99.90
23305;DHT22;11821;51.456;8.844;2022-09-09T09:01:28;23.60;99.90
23305;DHT22;11821;51.456;8.844;2022-09-09T09:04:11;23.90;99.90
23305;DHT22;11821;51.456;8.844;2022-09-09T09:07:07;23.90;99.90
23305;DHT22;11821;51.456;8.844;2022-09-09T09:09:52;24.20;99.90
23305;DHT22;11821;51.456;8.844;2022-09-09T09:12:23;24.40;99.90
23305;DHT22;11821;51.456;8.844;2022-09-09T09:14:50;24.50;99.90
23305;DHT22;11821;51.456;8.844;2022-09-09T09:17:24;24.30;99.90
23305;DHT22;11821;51.456;8.844;2022-09-09T09:19:51;24.20;99.90
23305;DHT22;11821;51.456;8.844;2022-09-09T09:22:24;23.90;99.90
23305;DHT22;11821;51.456;8.844;2022-09-09T09:25:18;24.00;99.90
23305;DHT22;11821;51.456;8.844;2022-09-09T09:28:16;23.90;99.90
23305;DHT22;11821;51.456;8.844;2022-09-09T09:30:52;24.10;99.90
23305;DHT22;11821;51.456;8.844;2022-09-09T09:35:53;23.90;99.90
23305;DHT22;11821;51.456;8.844;2022-09-09T09:38:23;23.70;99.90
23305;DHT22;11821;51.456;8.844;2022-09-09T09:40:58;23.60;99.90
23305;DHT22;11821;51.456;8.844;2022-09-09T09:43:27;23.50;99.90
23305;DHT22;11821;51.456;8.844;2022-09-09T09:45:55;23.30;99.90
23305;DHT22;11821;51.456;8.844;2022-09-09T09:48:24;23.40;99.90
23305;DHT22;11821;51.456;8.844;2022-09-09T09:53:27;23.60;99.90
23305;DHT22;11821;51.456;8.844;2022-09-09T09:56:01;23.50;99.90
23305;DHT22;11821;51.456;8.844;2022-09-09T09:58:33;23.30;99.90
23305;DHT22;11821;51.456;8.844;2022-09-09T10:01:03;23.20;99.90
23305;DHT22;11821;51.456;8.844;2022-09-09T10:03:32;23.20;99.90
23305;DHT22;11821;51.456;8.844;2022-09-09T10:06:04;23.50;99.90
23305;DHT22;11821;51.456;8.844;2022-09-09T10:08:34;23.60;99.90
23305;DHT22;11821;51.456;8.844;2022-09-09T10:11:30;23.50;99.90
23305;DHT22;11821;51.456;8.844;2022-09-09T10:14:21;23.50;99.90
23305;DHT22;11821;51.456;8.844;2022-09-09T10:16:55;23.90;99.90
23305;DHT22;11821;51.456;8.844;2022-09-09T10:19:34;24.30;99.90
23305;DHT22;11821;51.456;8.844;2022-09-09T10:30:18;25.00;98.70
23305;DHT22;11821;51.456;8.844;2022-09-09T10:35:25;24.70;99.00
23305;DHT22;11821;51.456;8.844;2022-09-09T10:47:00;25.80;97.50
23305;DHT22;11821;51.456;8.844;2022-09-09T10:52:32;25.70;97.30
23305;DHT22;11821;51.456;8.844;2022-09-09T10:55:16;25.90;97.10
23305;DHT22;11821;51.456;8.844;2022-09-09T10:57:51;25.60;96.10
23305;DHT22;11821;51.456;8.844;2022-09-09T11:01:05;25.80;95.90
23305;DHT22;11821;51.456;8.844;2022-09-09T11:03:29;25.60;96.00
23305;DHT22;11821;51.456;8.844;2022-09-09T11:06:02;25.80;94.70
23305;DHT22;11821;51.456;8.844;2022-09-09T11:08:32;25.70;94.50
23305;DHT22;11821;51.456;8.844;2022-09-09T11:16:42;26.20;93.80
23305;DHT22;11821;51.456;8.844;2022-09-09T11:21:46;26.50;93.70
23305;DHT22;11821;51.456;8.844;2022-09-09T11:24:23;26.70;93.30
23305;DHT22;11821;51.456;8.844;2022-09-09T11:35:01;26.10;92.90
23305;DHT22;11821;51.456;8.844;2022-09-09T11:40:25;26.50;93.20
23305;DHT22;11821;51.456;8.844;2022-09-09T11:43:12;26.80;92.40
23305;DHT22;11821;51.456;8.844;2022-09-09T11:45:40;27.10;92.50
23305;DHT22;11821;51.456;8.844;2022-09-09T11:48:38;27.40;92.40
23305;DHT22;11821;51.456;8.844;2022-09-09T11:56:27;27.40;92.80
23305;DHT22;11821;51.456;8.844;2022-09-09T11:59:23;27.40;92.20
23305;DHT22;11821;51.456;8.844;2022-09-09T12:01:58;26.90;91.90
23305;DHT22;11821;51.456;8.844;2022-09-09T12:07:02;26.40;90.50
23305;DHT22;11821;51.456;8.844;2022-09-09T12:09:43;26.20;91.50
23305;DHT22;11821;51.456;8.844;2022-09-09T12:15:03;27.00;91.40
23305;DHT22;11821;51.456;8.844;2022-09-09T12:17:51;27.50;91.90
23305;DHT22;11821;51.456;8.844;2022-09-09T12:20:23;27.50;90.50
23305;DHT22;11821;51.456;8.844;2022-09-09T12:26:27;26.90;91.70
23305;DHT22;11821;51.456;8.844;2022-09-09T12:32:06;26.20;91.00
23305;DHT22;11821;51.456;8.844;2022-09-09T12:34:52;26.00;91.00
23305;DHT22;11821;51.456;8.844;2022-09-09T12:37:37;25.90;92.00
23305;DHT22;11821;51.456;8.844;2022-09-09T12:40:14;26.00;91.70
23305;DHT22;11821;51.456;8.844;2022-09-09T12:42:44;26.10;92.00
23305;DHT22;11821;51.456;8.844;2022-09-09T12:45:28;26.30;91.30
23305;DHT22;11821;51.456;8.844;2022-09-09T12:48:05;26.20;92.10
23305;DHT22;11821;51.456;8.844;2022-09-09T12:50:43;26.20;92.00
23305;DHT22;11821;51.456;8.844;2022-09-09T12:58:35;25.90;91.60
23305;DHT22;11821;51.456;8.844;2022-09-09T13:01:04;25.80;91.80
23305;DHT22;11821;51.456;8.844;2022-09-09T13:03:32;25.60;91.80
23305;DHT22;11821;51.456;8.844;2022-09-09T13:06:11;25.60;91.90
23305;DHT22;11821;51.456;8.844;2022-09-09T13:08:38;25.80;91.80
23305;DHT22;11821;51.456;8.844;2022-09-09T13:11:10;25.80;91.80
23305;DHT22;11821;51.456;8.844;2022-09-09T13:13:40;25.90;91.80
23305;DHT22;11821;51.456;8.844;2022-09-09T13:16:26;26.00;91.80
23305;DHT22;11821;51.456;8.844;2022-09-09T13:19:14;26.00;91.50
23305;DHT22;11821;51.456;8.844;2022-09-09T13:21:41;26.20;92.50
23305;DHT22;11821;51.456;8.844;2022-09-09T13:24:31;25.90;91.50
23305;DHT22;11821;51.456;8.844;2022-09-09T13:27:03;26.30;92.20
23305;DHT22;11821;51.456;8.844;2022-09-09T13:29:33;26.30;91.70
23305;DHT22;11821;51.456;8.844;2022-09-09T13:32:15;26.20;91.90
23305;DHT22;11821;51.456;8.844;2022-09-09T13:35:00;26.30;91.70
23305;DHT22;11821;51.456;8.844;2022-09-09T13:37:47;26.30;91.70
23305;DHT22;11821;51.456;8.844;2022-09-09T13:40:18;26.60;91.20
23305;DHT22;11821;51.456;8.844;2022-09-09T13:42:55;26.80;91.70
23305;DHT22;11821;51.456;8.844;2022-09-09T13:45:24;26.90;91.20
23305;DHT22;11821;51.456;8.844;2022-09-09T13:47:53;26.80;91.30
23305;DHT22;11821;51.456;8.844;2022-09-09T13:50:22;26.80;91.50
23305;DHT22;11821;51.456;8.844;2022-09-09T13:52:52;26.90;91.30
23305;DHT22;11821;51.456;8.844;2022-09-09T13:55:24;26.90;91.10
23305;DHT22;11821;51.456;8.844;2022-09-09T13:57:59;26.90;90.50
23305;DHT22;11821;51.456;8.844;2022-09-09T14:00:29;26.70;90.90
23305;DHT22;11821;51.456;8.844;2022-09-09T14:02:56;26.60;91.20
23305;DHT22;11821;51.456;8.844;2022-09-09T14:05:22;26.40;92.00
23305;DHT22;11821;51.456;8.844;2022-09-09T14:07:49;26.20;91.70
23305;DHT22;11821;51.456;8.844;2022-09-09T14:10:16;26.00;91.60
23305;DHT22;11821;51.456;8.844;2022-09-09T14:12:42;25.90;92.70
23305;DHT22;11821;51.456;8.844;2022-09-09T14:15:11;25.80;92.80
23305;DHT22;11821;51.456;8.844;2022-09-09T14:17:38;25.50;92.90
23305;DHT22;11821;51.456;8.844;2022-09-09T14:20:05;25.40;93.10
23305;DHT22;11821;51.456;8.844;2022-09-09T14:22:38;25.30;93.80
23305;DHT22;11821;51.456;8.844;2022-09-09T14:25:05;24.90;94.90
23305;DHT22;11821;51.456;8.844;2022-09-09T14:27:32;24.90;96.00
23305;DHT22;11821;51.456;8.844;2022-09-09T14:29:58;24.70;95.60
23305;DHT22;11821;51.456;8.844;2022-09-09T14:32:27;24.50;95.70
23305;DHT22;11821;51.456;8.844;2022-09-09T14:34:53;24.60;96.10
23305;DHT22;11821;51.456;8.844;2022-09-09T14:37:22;24.70;96.30
23305;DHT22;11821;51.456;8.844;2022-09-09T14:39:50;24.50;96.20
23305;DHT22;11821;51.456;8.844;2022-09-09T14:42:17;24.30;96.60
23305;DHT22;11821;51.456;8.844;2022-09-09T14:44:44;24.20;96.60
23305;DHT22;11821;51.456;8.844;2022-09-09T14:47:10;24.20;96.80
23305;DHT22;11821;51.456;8.844;2022-09-09T14:49:38;24.40;96.80
23305;DHT22;11821;51.456;8.844;2022-09-09T14:52:05;24.30;96.70
23305;DHT22;11821;51.456;8.844;2022-09-09T14:54:31;24.20;96.30
23305;DHT22;11821;51.456;8.844;2022-09-09T14:56:58;24.10;96.90
23305;DHT22;11821;51.456;8.844;2022-09-09T14:59:25;23.90;97.20
23305;DHT22;11821;51.456;8.844;2022-09-09T15:02:09;23.80;97.00
23305;DHT22;11821;51.456;8.844;2022-09-09T15:04:35;23.80;97.20
23305;DHT22;11821;51.456;8.844;2022-09-09T15:07:01;24.00;96.90
23305;DHT22;11821;51.456;8.844;2022-09-09T15:09:28;24.10;97.10
23305;DHT22;11821;51.456;8.844;2022-09-09T15:11:55;24.00;96.80
23305;DHT22;11821;51.456;8.844;2022-09-09T15:14:21;23.90;97.30
23305;DHT22;11821;51.456;8.844;2022-09-09T15:16:47;23.80;97.60
23305;DHT22;11821;51.456;8.844;2022-09-09T15:19:13;23.80;97.50
23305;DHT22;11821;51.456;8.844;2022-09-09T15:21:39;23.80;97.90
23305;DHT22;11821;51.456;8.844;2022-09-09T15:24:06;23.90;98.10
23305;DHT22;11821;51.456;8.844;2022-09-09T15:26:34;23.90;98.10
23305;DHT22;11821;51.456;8.844;2022-09-09T15:29:01;23.90;97.80
23305;DHT22;11821;51.456;8.844;2022-09-09T15:31:29;23.90;98.20
23305;DHT22;11821;51.456;8.844;2022-09-09T15:33:58;23.90;98.00
23305;DHT22;11821;51.456;8.844;2022-09-09T15:36:38;23.70;98.50
23305;DHT22;11821;51.456;8.844;2022-09-09T15:39:10;23.80;98.80
23305;DHT22;11821;51.456;8.844;2022-09-09T15:41:39;23.90;98.90
23305;DHT22;11821;51.456;8.844;2022-09-09T15:44:05;23.70;98.70
23305;DHT22;11821;51.456;8.844;2022-09-09T15:46:33;23.50;99.10
23305;DHT22;11821;51.456;8.844;2022-09-09T15:49:15;23.50;99.60
23305;DHT22;11821;51.456;8.844;2022-09-09T15:51:43;23.40;99.90
23305;DHT22;11821;51.456;8.844;2022-09-09T15:54:11;23.40;99.80
23305;DHT22;11821;51.456;8.844;2022-09-09T15:56:38;23.50;99.90
23305;DHT22;11821;51.456;8.844;2022-09-09T15:59:04;23.50;99.80
23305;DHT22;11821;51.456;8.844;2022-09-09T16:01:30;23.60;99.70
23305;DHT22;11821;51.456;8.844;2022-09-09T16:03:58;23.60;99.70
23305;DHT22;11821;51.456;8.844;2022-09-09T16:06:27;23.50;99.40
23305;DHT22;11821;51.456;8.844;2022-09-09T16:08:55;23.50;99.60
23305;DHT22;11821;51.456;8.844;2022-09-09T16:11:27;23.60;99.70
23305;DHT22;11821;51.456;8.844;2022-09-09T16:13:54;23.70;99.60
23305;DHT22;11821;51.456;8.844;2022-09-09T16:16:25;23.70;99.30
23305;DHT22;11821;51.456;8.844;2022-09-09T16:19:05;23.80;99.50
23305;DHT22;11821;51.456;8.844;2022-09-09T16:21:35;23.60;99.20
23305;DHT22;11821;51.456;8.844;2022-09-09T16:24:02;23.40;99.40
23305;DHT22;11821;51.456;8.844;2022-09-09T16:26:31;23.40;99.80
23305;DHT22;11821;51.456;8.844;2022-09-09T16:28:58;23.40;99.60
23305;DHT22;11821;51.456;8.844;2022-09-09T16:31:26;23.20;99.30
23305;DHT22;11821;51.456;8.844;2022-09-09T16:33:53;23.10;99.70
23305;DHT22;11821;51.456;8.844;2022-09-09T16:36:21;23.20;99.90
23305;DHT22;11821;51.456;8.844;2022-09-09T16:38:52;23.20;99.60
23305;DHT22;11821;51.456;8.844;2022-09-09T16:41:19;23.10;99.80
23305;DHT22;11821;51.456;8.844;2022-09-09T16:43:45;23.20;99.70
23305;DHT22;11821;51.456;8.844;2022-09-09T16:46:17;23.00;99.60
23305;DHT22;11821;51.456;8.844;2022-09-09T16:48:46;22.90;99.40
23305;DHT22;11821;51.456;8.844;2022-09-09T16:51:15;22.90;99.60
23305;DHT22;11821;51.456;8.844;2022-09-09T16:53:42;22.90;99.70
23305;DHT22;11821;51.456;8.844;2022-09-09T16:56:14;22.90;99.50
23305;DHT22;11821;51.456;8.844;2022-09-09T16:58:40;22.70;99.00
23305;DHT22;11821;51.456;8.844;2022-09-09T17:01:09;22.60;99.20
23305;DHT22;11821;51.456;8.844;2022-09-09T17:03:36;22.60;99.40
23305;DHT22;11821;51.456;8.844;2022-09-09T17:06:03;22.60;99.40
23305;DHT22;11821;51.456;8.844;2022-09-09T17:08:34;22.50;99.10
23305;DHT22;11821;51.456;8.844;2022-09-09T17:11:00;22.60;99.50
23305;DHT22;11821;51.456;8.844;2022-09-09T17:13:26;22.50;99.50
23305;DHT22;11821;51.456;8.844;2022-09-09T17:15:52;22.50;99.20
23305;DHT22;11821;51.456;8.844;2022-09-09T17:18:18;22.40;99.20
23305;DHT22;11821;51.456;8.844;2022-09-09T17:20:45;22.40;99.20
23305;DHT22;11821;51.456;8.844;2022-09-09T17:23:31;22.40;99.40
23305;DHT22;11821;51.456;8.844;2022-09-09T17:25:58;22.20;98.90
23305;DHT22;11821;51.456;8.844;2022-09-09T17:28:36;22.20;99.10
23305;DHT22;11821;51.456;8.844;2022-09-09T17:31:08;22.10;98.30
23305;DHT22;11821;51.456;8.844;2022-09-09T17:33:35;22.00;98.00
23305;DHT22;11821;51.456;8.844;2022-09-09T17:36:10;21.90;98.20
23305;DHT22;11821;51.456;8.844;2022-09-09T17:38:37;21.80;98.50
23305;DHT22;11821;51.456;8.844;2022-09-09T17:41:18;21.90;98.70
23305;DHT22;11821;51.456;8.844;2022-09-09T17:43:45;21.80;98.70